Time;durP1;ratioP1;P1;durP2;ratioP2;P2;SDS_P1;SDS_P2;PMS_P1;PMS_P2;Temp;Humidity;BMP_temperature;BMP_pressure;BME280_temperature;BME280_humidity;BME280_pressure;Samples;Min_cycle;Max_cycle;Signal;HPM_P1;HPM_P2
2021/10/17 00:01:37;;;;;;;13.07;7.78;;;;;;;8.88;77.87;101183.28;5003462;28;20038;-77
2021/10/17 00:04:03;;;;;;;13.48;8.23;;;;;;;8.84;77.73;101174.50;5005441;28;20137;-77
2021/10/17 00:06:28;;;;;;;15.13;7.35;;;;;;;8.77;78.46;101184.06;5004633;28;20496;-77
2021/10/17 00:08:55;;;;;;;17.23;8.60;;;;;;;8.78;78.46;101180.56;4985114;28;20041;-76
2021/10/17 00:11:20;;;;;;;13.82;7.93;;;;;;;8.83;78.04;101170.09;5003163;28;20070;-77
2021/10/17 00:13:46;;;;;;;14.73;8.43;;;;;;;8.74;78.16;101176.13;5001496;28;20504;-77
2021/10/17 00:16:11;;;;;;;13.43;8.80;;;;;;;8.73;77.97;101184.91;5002379;28;20093;-77
2021/10/17 00:18:36;;;;;;;12.95;8.27;;;;;;;8.75;77.62;101177.00;5003440;28;20117;-77
2021/10/17 00:21:02;;;;;;;19.85;8.52;;;;;;;8.59;77.64;101183.84;5001707;28;20053;-77
2021/10/17 00:23:27;;;;;;;13.45;8.95;;;;;;;8.60;78.12;101176.84;5005916;28;20036;-78
2021/10/17 00:25:53;;;;;;;13.20;7.72;;;;;;;8.62;78.00;101173.38;5009460;28;20037;-77
2021/10/17 00:28:18;;;;;;;14.13;8.48;;;;;;;8.56;78.52;101168.88;5012724;28;20041;-77
2021/10/17 00:30:49;;;;;;;12.98;7.75;;;;;;;8.58;78.35;101165.41;5000432;28;20033;-77
2021/10/17 00:33:14;;;;;;;12.02;7.82;;;;;;;8.65;77.80;101169.91;5019255;28;20033;-77
2021/10/17 00:35:40;;;;;;;17.23;8.25;;;;;;;8.60;77.88;101168.97;4983559;28;20038;-77
2021/10/17 00:38:06;;;;;;;14.35;8.18;;;;;;;8.56;77.55;101170.66;5020142;28;20553;-77
2021/10/17 00:40:31;;;;;;;14.23;8.23;;;;;;;8.61;78.19;101168.94;5003277;28;20052;-78
2021/10/17 00:42:56;;;;;;;14.52;8.55;;;;;;;8.62;78.00;101170.75;5016740;28;20038;-77
2021/10/17 00:45:32;;;;;;;16.60;8.30;;;;;;;8.63;77.32;101169.88;5000687;28;20042;-77
2021/10/17 00:47:59;;;;;;;15.07;8.05;;;;;;;8.57;77.62;101169.81;5004302;28;20053;-77
2021/10/17 00:50:25;;;;;;;15.07;8.43;;;;;;;8.53;78.11;101170.63;5004968;28;20033;-78
2021/10/17 00:52:51;;;;;;;13.43;8.20;;;;;;;8.56;78.09;101168.88;5002911;28;20448;-77
2021/10/17 00:55:18;;;;;;;14.27;7.47;;;;;;;8.56;78.26;101171.53;5002078;28;20125;-78
2021/10/17 00:57:45;;;;;;;12.75;7.00;;;;;;;8.61;77.82;101162.81;5010203;28;20040;-78
2021/10/17 01:00:14;;;;;;;14.60;7.88;;;;;;;8.61;77.71;101165.44;5002370;28;20069;-78
2021/10/17 01:02:39;;;;;;;11.30;6.88;;;;;;;8.56;77.77;101166.25;5002845;28;20125;-78
2021/10/17 01:05:11;;;;;;;15.05;7.60;;;;;;;8.68;77.33;101165.53;5007076;28;20109;-78
2021/10/17 01:07:37;;;;;;;9.82;7.22;;;;;;;8.75;76.95;101171.75;5004211;28;20046;-78
2021/10/17 01:10:03;;;;;;;12.95;7.97;;;;;;;8.71;76.98;101173.47;5000954;28;20044;-78
2021/10/17 01:12:28;;;;;;;12.68;7.43;;;;;;;8.69;77.42;101169.06;5017578;28;20053;-78
2021/10/17 01:14:54;;;;;;;13.40;7.70;;;;;;;8.65;78.13;101169.91;5002545;28;20479;-77
2021/10/17 01:17:19;;;;;;;11.70;7.18;;;;;;;8.64;77.93;101168.09;5009232;28;20572;-78
2021/10/17 01:19:47;;;;;;;11.55;7.20;;;;;;;8.75;77.87;101159.50;5016589;28;20108;-78
2021/10/17 01:22:20;;;;;;;15.30;7.20;;;;;;;8.74;77.62;101160.34;5001967;28;20125;-78
2021/10/17 01:24:46;;;;;;;13.25;7.40;;;;;;;8.68;78.06;101154.13;4984147;28;20093;-77
2021/10/17 01:27:11;;;;;;;15.27;7.47;;;;;;;8.69;77.23;101154.13;5018118;28;20033;-78
2021/10/17 01:29:37;;;;;;;13.40;7.07;;;;;;;8.71;77.68;101160.31;5016493;28;20034;-77
2021/10/17 01:32:04;;;;;;;12.88;7.55;;;;;;;8.75;77.65;101151.59;5018601;28;20033;-78
2021/10/17 01:34:29;;;;;;;10.73;7.30;;;;;;;8.72;77.63;101154.19;5015519;28;20038;-77
2021/10/17 01:36:55;;;;;;;14.65;7.18;;;;;;;8.66;77.37;101151.47;5004098;28;20060;-78
2021/10/17 01:39:23;;;;;;;14.23;7.78;;;;;;;8.67;77.60;101155.91;5020105;28;20026;-78
2021/10/17 01:41:49;;;;;;;12.32;7.88;;;;;;;8.65;77.60;101154.97;5015466;28;20034;-78
2021/10/17 01:44:27;;;;;;;11.70;7.65;;;;;;;8.69;77.10;101138.34;5002513;28;20034;-77
2021/10/17 01:46:54;;;;;;;11.45;6.38;;;;;;;8.70;77.16;101144.53;5016341;28;20046;-77
2021/10/17 01:49:23;;;;;;;13.20;7.43;;;;;;;8.68;77.67;101144.50;5018039;28;20030;-77
2021/10/17 01:51:50;;;;;;;12.02;7.28;;;;;;;8.69;77.43;101140.97;5016191;28;20041;-77
2021/10/17 01:54:15;;;;;;;12.05;7.25;;;;;;;8.64;77.57;101152.31;5018028;28;20034;-77
2021/10/17 01:56:41;;;;;;;13.43;7.18;;;;;;;8.62;77.86;101141.78;5002204;28;20034;-78
2021/10/17 01:59:07;;;;;;;12.82;7.63;;;;;;;8.65;78.08;101147.09;5022666;28;20029;-78
2021/10/17 02:01:44;;;;;;;14.32;7.45;;;;;;;8.72;77.45;101145.41;5005542;28;20041;-77
2021/10/17 02:04:10;;;;;;;10.85;6.82;;;;;;;8.73;77.59;101142.78;5021563;28;20431;-77
2021/10/17 02:06:36;;;;;;;11.77;7.07;;;;;;;8.74;77.03;101144.53;4991815;28;20492;-77
2021/10/17 02:09:03;;;;;;;10.20;7.40;;;;;;;8.72;77.48;101141.03;5022582;28;20038;-77
2021/10/17 02:11:29;;;;;;;12.88;6.85;;;;;;;8.73;77.78;101142.78;5005711;28;20415;-78
2021/10/17 02:13:55;;;;;;;11.27;7.15;;;;;;;8.71;78.02;101141.88;5002505;28;20034;-78
2021/10/17 02:16:21;;;;;;;14.70;7.72;;;;;;;8.67;78.42;101136.56;5022713;28;20480;-78
2021/10/17 02:18:49;;;;;;;11.73;6.97;;;;;;;8.68;78.18;101128.69;5018919;28;20038;-78
2021/10/17 02:21:16;;;;;;;10.82;6.35;;;;;;;8.64;78.79;101133.91;5022698;28;20053;-78
2021/10/17 02:23:43;;;;;;;10.57;7.18;;;;;;;8.63;79.08;101129.53;5002375;28;20035;-77
2021/10/17 02:26:08;;;;;;;10.63;7.05;;;;;;;8.60;78.31;101130.38;5021835;28;20045;-78
2021/10/17 02:28:53;;;;;;;14.98;8.52;;;;;;;8.60;78.32;101124.22;5004547;28;20038;-78
2021/10/17 02:31:20;;;;;;;10.13;7.13;;;;;;;8.40;79.71;101134.50;5005489;28;20396;-78
2021/10/17 02:33:50;;;;;;;13.63;7.63;;;;;;;8.45;79.42;101131.06;5020437;28;20030;-78
2021/10/17 02:36:15;;;;;;;13.07;7.95;;;;;;;8.47;78.75;101128.47;5005985;28;20096;-78
2021/10/17 02:38:40;;;;;;;13.70;8.15;;;;;;;8.46;79.62;101126.66;5003026;28;20042;-78
2021/10/17 02:41:06;;;;;;;12.40;7.18;;;;;;;8.48;79.81;101130.22;5006682;28;20032;-77
2021/10/17 02:43:32;;;;;;;13.15;7.72;;;;;;;8.51;79.48;101123.25;5021720;28;20038;-78
2021/10/17 02:45:57;;;;;;;11.45;6.82;;;;;;;8.51;79.46;101120.63;5018906;28;20036;-78
2021/10/17 02:48:23;;;;;;;14.52;6.82;;;;;;;8.52;79.54;101132.91;5020686;28;20030;-77
2021/10/17 02:50:49;;;;;;;11.70;6.97;;;;;;;8.63;78.84;101130.41;5010863;28;20447;-78
2021/10/17 02:53:15;;;;;;;13.45;6.90;;;;;;;8.65;78.71;101125.16;5009278;28;20104;-78
2021/10/17 02:55:40;;;;;;;12.93;7.45;;;;;;;8.58;79.15;101126.81;5008264;28;20041;-78
2021/10/17 02:58:07;;;;;;;13.88;7.40;;;;;;;8.59;79.13;101123.31;5022735;28;20045;-78
2021/10/17 03:00:33;;;;;;;12.32;7.45;;;;;;;8.62;78.91;101125.09;5025172;28;20034;-78
2021/10/17 03:02:58;;;;;;;15.25;6.72;;;;;;;8.65;78.96;101120.78;5007666;28;20504;-78
2021/10/17 03:05:24;;;;;;;13.77;7.90;;;;;;;8.64;78.72;101121.63;5019851;28;20042;-78
2021/10/17 03:07:49;;;;;;;12.60;7.68;;;;;;;8.57;79.26;101114.56;5019750;28;20034;-78
2021/10/17 03:10:15;;;;;;;11.07;6.45;;;;;;;8.64;79.27;101121.63;5002655;28;20409;-78
2021/10/17 03:12:40;;;;;;;12.00;6.65;;;;;;;8.68;78.55;101112.03;5022417;28;20108;-77
2021/10/17 03:15:10;;;;;;;12.93;7.38;;;;;;;8.64;78.40;101113.72;5018229;28;20083;-77
2021/10/17 03:17:36;;;;;;;9.73;6.47;;;;;;;8.56;79.31;101107.50;5020722;28;20519;-77
2021/10/17 03:20:03;;;;;;;11.77;7.20;;;;;;;8.63;79.41;101111.09;5021763;28;20034;-77
2021/10/17 03:22:33;;;;;;;12.63;6.80;;;;;;;8.64;79.30;101119.00;5017920;28;20062;-77
2021/10/17 03:24:59;;;;;;;12.90;7.07;;;;;;;8.55;79.90;101116.28;5005564;28;20058;-77
2021/10/17 03:27:27;;;;;;;13.55;6.78;;;;;;;8.51;79.86;101111.81;5017705;28;20173;-77
2021/10/17 03:29:54;;;;;;;11.93;6.10;;;;;;;8.44;80.46;101116.16;5004354;28;20471;-77
2021/10/17 03:32:20;;;;;;;13.50;6.82;;;;;;;8.58;79.50;101105.78;5002122;28;20105;-77
2021/10/17 03:34:46;;;;;;;14.52;7.05;;;;;;;8.57;79.04;101111.91;5020515;28;20041;-77
2021/10/17 03:37:13;;;;;;;13.63;6.85;;;;;;;8.57;79.13;101109.28;5001317;28;20065;-77
2021/10/17 03:39:39;;;;;;;10.73;6.03;;;;;;;8.65;79.15;101110.25;4987726;28;20558;-78
2021/10/17 03:42:04;;;;;;;12.05;7.05;;;;;;;8.60;79.21;101106.69;5018315;28;20041;-78
2021/10/17 03:44:30;;;;;;;10.88;6.68;;;;;;;8.59;79.27;101107.53;5021629;28;20053;-77
2021/10/17 03:46:56;;;;;;;10.60;6.85;;;;;;;8.61;79.18;101111.06;5019328;28;20520;-77
2021/10/17 03:49:23;;;;;;;11.05;6.28;;;;;;;8.54;79.16;101106.59;5021039;28;20088;-77
2021/10/17 03:51:49;;;;;;;11.30;5.60;;;;;;;8.56;79.41;101100.50;5006720;28;20062;-77
2021/10/17 03:54:15;;;;;;;11.70;6.68;;;;;;;8.49;78.88;101100.44;5006893;28;20096;-77
2021/10/17 03:56:40;;;;;;;12.75;7.07;;;;;;;8.21;80.67;101105.31;5018089;28;20126;-77
2021/10/17 03:59:10;;;;;;;15.32;6.28;;;;;;;8.28;80.64;101107.16;5002547;28;20065;-77
2021/10/17 04:01:36;;;;;;;11.30;6.35;;;;;;;8.37;80.23;101098.50;5018057;28;20088;-77
2021/10/17 04:04:01;;;;;;;12.82;6.70;;;;;;;8.38;80.11;101096.72;5004502;28;20155;-77
2021/10/17 04:06:26;;;;;;;11.20;6.72;;;;;;;8.39;79.78;101106.41;5017180;28;20072;-77
2021/10/17 04:08:59;;;;;;;11.55;6.53;;;;;;;8.37;79.74;101102.88;5019285;28;20034;-77
2021/10/17 04:11:25;;;;;;;12.27;6.80;;;;;;;8.37;80.18;101103.75;5017363;28;20045;-78
2021/10/17 04:13:51;;;;;;;13.88;6.38;;;;;;;8.41;79.85;101102.06;5019409;28;20038;-77
2021/10/17 04:16:17;;;;;;;10.27;5.70;;;;;;;8.42;79.35;101117.00;5016554;28;20429;-77
2021/10/17 04:18:42;;;;;;;18.33;6.45;;;;;;;8.43;79.49;101095.06;5020107;28;21731;-77
2021/10/17 04:21:08;;;;;;;12.30;5.50;;;;;;;8.42;79.38;101104.72;5016673;28;20089;-78
2021/10/17 04:23:33;;;;;;;13.20;6.00;;;;;;;8.45;79.23;101106.50;5019566;28;20046;-78
2021/10/17 04:25:59;;;;;;;12.80;5.82;;;;;;;8.44;79.31;101113.53;5001272;28;20026;-78
2021/10/17 04:28:27;;;;;;;11.25;5.07;;;;;;;8.43;79.36;101103.84;5019483;28;20030;-78
2021/10/17 04:30:53;;;;;;;13.02;5.82;;;;;;;8.52;79.12;101098.72;5017591;28;20041;-78
2021/10/17 04:33:18;;;;;;;12.50;5.40;;;;;;;8.51;78.71;101109.19;5018196;28;20227;-78
2021/10/17 04:35:44;;;;;;;10.90;5.60;;;;;;;8.45;78.67;101109.13;5002986;28;20064;-77
2021/10/17 04:38:09;;;;;;;9.32;5.50;;;;;;;8.39;78.74;101104.69;5003113;28;20035;-78
2021/10/17 04:40:36;;;;;;;11.32;5.45;;;;;;;8.37;79.14;101097.63;5002318;28;20511;-77
2021/10/17 04:43:03;;;;;;;10.27;5.47;;;;;;;8.40;79.43;101095.03;5000597;28;20038;-78
2021/10/17 04:45:28;;;;;;;14.10;6.07;;;;;;;8.44;78.61;101096.88;5003284;28;20076;-78
2021/10/17 04:47:53;;;;;;;13.57;5.97;;;;;;;8.39;79.05;101098.53;5017262;28;20509;-78
2021/10/17 04:50:19;;;;;;;11.00;5.03;;;;;;;8.44;78.94;101086.34;5004853;28;20056;-78
2021/10/17 04:52:45;;;;;;;13.73;5.35;;;;;;;8.44;79.21;101088.97;5016305;28;20404;-77
2021/10/17 04:55:10;;;;;;;13.73;5.70;;;;;;;8.42;79.52;101083.69;5004165;28;20057;-78
2021/10/17 04:57:39;;;;;;;10.20;5.38;;;;;;;8.47;79.19;101086.38;5019848;28;20038;-78
2021/10/17 05:00:07;;;;;;;10.13;5.15;;;;;;;8.48;78.67;101089.00;5020029;28;20037;-78
2021/10/17 05:02:48;;;;;;;10.13;5.30;;;;;;;8.48;78.36;101083.75;5018451;28;20037;-78
2021/10/17 05:05:14;;;;;;;9.43;4.50;;;;;;;8.52;78.23;101090.81;5017435;28;20034;-78
2021/10/17 05:07:41;;;;;;;11.75;4.90;;;;;;;8.46;78.11;101090.75;5015987;28;20033;-76
2021/10/17 05:10:07;;;;;;;11.70;5.65;;;;;;;8.46;78.52;101096.00;4999542;28;20065;-76
2021/10/17 05:12:32;;;;;;;13.27;6.18;;;;;;;8.44;78.38;101097.75;4986255;28;20105;-78
2021/10/17 05:14:58;;;;;;;11.93;5.43;;;;;;;8.31;78.93;101101.06;5018558;28;20547;-75
2021/10/17 05:17:24;;;;;;;10.55;5.32;;;;;;;8.33;79.19;101105.47;5009568;28;20084;-75
2021/10/17 05:19:49;;;;;;;11.80;5.68;;;;;;;8.39;78.50;101101.16;5018737;28;20034;-76
2021/10/17 05:22:15;;;;;;;12.40;5.40;;;;;;;8.44;78.40;101102.13;5003604;28;20034;-75
2021/10/17 05:24:40;;;;;;;13.02;6.30;;;;;;;8.46;78.44;101105.63;5020050;28;20033;-75
2021/10/17 05:27:06;;;;;;;17.02;6.30;;;;;;;8.50;78.10;101094.28;5004531;28;20046;-75
2021/10/17 05:29:31;;;;;;;14.02;5.78;;;;;;;8.48;77.59;101103.91;5003486;28;20030;-76
2021/10/17 05:31:58;;;;;;;11.02;4.95;;;;;;;8.51;77.82;101103.94;5006584;28;20034;-76
2021/10/17 05:34:23;;;;;;;11.13;5.18;;;;;;;8.53;77.79;101110.09;5006302;28;20415;-75
2021/10/17 05:36:49;;;;;;;10.93;4.80;;;;;;;8.49;77.58;101105.69;5027097;28;20025;-76
2021/10/17 05:39:14;;;;;;;12.93;5.18;;;;;;;8.48;77.64;101112.69;5012903;28;20037;-76
2021/10/17 05:41:40;;;;;;;11.18;4.80;;;;;;;8.45;77.62;101114.41;5010878;28;20042;-75
2021/10/17 05:44:05;;;;;;;10.23;5.45;;;;;;;8.52;77.56;101105.72;5008181;28;20049;-76
2021/10/17 05:46:31;;;;;;;11.90;5.50;;;;;;;8.59;77.65;101114.56;5021051;28;20122;-76
2021/10/17 05:48:57;;;;;;;13.52;5.32;;;;;;;8.61;76.72;101113.69;5029823;28;20116;-75
2021/10/17 05:51:22;;;;;;;14.40;5.32;;;;;;;8.61;77.48;101111.06;5005096;28;20050;-76
2021/10/17 05:53:48;;;;;;;11.25;4.65;;;;;;;8.55;76.65;101124.16;5025003;28;20021;-76
2021/10/17 05:56:13;;;;;;;8.02;4.75;;;;;;;8.52;76.95;101124.13;5005293;28;20125;-76
2021/10/17 05:58:39;;;;;;;8.55;4.07;;;;;;;8.56;77.10;101123.28;5023697;28;20040;-76
2021/10/17 06:01:04;;;;;;;9.98;4.78;;;;;;;8.56;76.73;101120.66;5006627;28;20044;-76
2021/10/17 06:03:36;;;;;;;12.55;4.85;;;;;;;8.54;77.23;101131.19;5003174;28;20061;-75
2021/10/17 06:06:39;;;;;;;11.82;5.22;;;;;;;8.50;76.77;101134.63;5022309;28;20038;-75
2021/10/17 06:09:05;;;;;;;10.25;4.68;;;;;;;8.50;76.79;101121.47;5026307;28;20042;-75
2021/10/17 06:11:32;;;;;;;11.85;5.18;;;;;;;8.55;76.95;101129.44;5021682;28;20030;-75
2021/10/17 06:13:57;;;;;;;11.98;4.75;;;;;;;8.60;76.72;101119.84;5010499;28;20053;-75
2021/10/17 06:16:23;;;;;;;9.50;4.68;;;;;;;8.65;76.76;101122.53;5009608;28;20026;-76
2021/10/17 06:18:48;;;;;;;10.07;4.22;;;;;;;8.73;77.05;101129.63;5029627;28;20480;-75
2021/10/17 06:21:14;;;;;;;11.38;4.95;;;;;;;8.84;76.30;101124.47;5022894;28;20519;-75
2021/10/17 06:23:41;;;;;;;13.40;4.75;;;;;;;8.84;75.96;101123.59;5026791;28;20030;-75
2021/10/17 06:26:06;;;;;;;9.63;4.45;;;;;;;8.87;75.87;101111.34;5012864;28;20032;-75
2021/10/17 06:28:33;;;;;;;8.35;4.05;;;;;;;8.95;76.12;101119.31;5028878;28;20082;-75
2021/10/17 06:30:59;;;;;;;10.93;4.53;;;;;;;8.98;75.13;101132.50;5012466;28;20033;-76
2021/10/17 06:33:24;;;;;;;15.18;5.03;;;;;;;8.94;75.23;101123.72;5012127;28;20034;-76
2021/10/17 06:35:50;;;;;;;11.32;4.88;;;;;;;8.83;75.42;101132.34;5023783;28;20485;-76
2021/10/17 06:38:15;;;;;;;8.80;4.50;;;;;;;8.85;75.51;101120.97;5023770;28;20048;-75
2021/10/17 06:40:41;;;;;;;11.93;4.20;;;;;;;8.84;75.26;101135.00;5020892;28;20045;-76
2021/10/17 06:43:09;;;;;;;12.43;4.28;;;;;;;8.73;75.43;101136.66;5022269;28;20121;-75
2021/10/17 06:45:50;;;;;;;8.20;4.00;;;;;;;8.67;75.70;101134.84;5002991;28;20053;-75
2021/10/17 06:48:17;;;;;;;12.45;5.15;;;;;;;8.57;76.02;101135.59;5008615;28;20504;-76
2021/10/17 06:50:42;;;;;;;13.13;4.85;;;;;;;8.47;75.90;101142.50;5017750;28;20053;-76
2021/10/17 06:53:08;;;;;;;10.60;4.22;;;;;;;8.47;76.65;101150.38;5000108;28;20045;-76
2021/10/17 06:55:33;;;;;;;14.30;5.65;;;;;;;8.45;76.31;101148.59;5017929;28;20125;-75
2021/10/17 06:57:59;;;;;;;11.77;4.57;;;;;;;8.47;76.25;101155.66;5020849;28;20420;-76
2021/10/17 07:00:26;;;;;;;11.32;4.07;;;;;;;8.46;76.72;101145.09;5005498;28;20029;-76
2021/10/17 07:02:53;;;;;;;10.43;4.45;;;;;;;8.46;76.50;101147.72;5001293;28;20091;-76
2021/10/17 07:05:20;;;;;;;9.85;4.35;;;;;;;8.50;76.64;101146.91;5005840;28;20117;-75
2021/10/17 07:07:45;;;;;;;12.20;4.13;;;;;;;8.45;77.22;101152.09;5002259;28;20655;-75
2021/10/17 07:10:11;;;;;;;11.50;4.45;;;;;;;8.48;77.08;101148.63;5003775;28;20135;-75
2021/10/17 07:12:55;;;;;;;9.18;3.90;;;;;;;8.50;76.93;101155.69;5003926;28;20052;-75
2021/10/17 07:15:25;;;;;;;12.38;4.38;;;;;;;8.46;77.21;101159.16;5019928;28;20030;-75
2021/10/17 07:17:56;;;;;;;8.80;3.88;;;;;;;8.52;77.18;101163.59;5009150;28;20028;-76
2021/10/17 07:20:21;;;;;;;8.05;4.13;;;;;;;8.52;77.32;101161.84;5008198;28;20121;-76
2021/10/17 07:22:46;;;;;;;11.05;4.55;;;;;;;8.53;76.83;101160.09;5008659;28;20036;-76
2021/10/17 07:25:12;;;;;;;8.13;4.15;;;;;;;8.58;77.17;101158.41;5005724;28;20041;-75
2021/10/17 07:27:37;;;;;;;12.23;4.57;;;;;;;8.67;76.59;101157.63;5009694;28;20083;-75
2021/10/17 07:30:05;;;;;;;10.55;4.10;;;;;;;8.74;76.77;101170.00;5025280;28;20029;-75
2021/10/17 07:32:32;;;;;;;8.15;4.28;;;;;;;8.76;76.14;101166.50;5024308;28;20069;-75
2021/10/17 07:34:58;;;;;;;8.43;3.92;;;;;;;8.84;76.16;101165.72;4991206;28;20073;-76
2021/10/17 07:37:30;;;;;;;;;;;;;;;8.90;75.82;101171.91;5020048;28;20036;-76
2021/10/17 07:39:55;;;;;;;10.90;3.70;;;;;;;9.04;75.43;101174.72;5014529;28;20292;-75
2021/10/17 07:42:21;;;;;;;11.50;4.53;;;;;;;9.13;75.32;101161.63;5020991;28;20121;-76
2021/10/17 07:44:51;;;;;;;10.50;4.10;;;;;;;9.24;75.37;101160.84;5000018;28;20030;-76
2021/10/17 07:47:20;;;;;;;10.23;4.00;;;;;;;9.34;74.68;101162.72;5021740;28;20033;-75
2021/10/17 07:50:07;;;;;;;9.32;3.65;;;;;;;9.41;74.55;101165.41;5000588;28;20030;-76
2021/10/17 07:52:37;;;;;;;8.75;4.40;;;;;;;9.50;74.58;101163.72;5018579;28;20493;-76
2021/10/17 07:55:12;;;;;;;9.05;4.03;;;;;;;9.64;74.53;101167.34;5018969;28;20030;-76
2021/10/17 07:57:53;;;;;;;10.05;3.85;;;;;;;9.80;72.70;101166.59;5015721;28;20061;-76
2021/10/17 08:00:22;;;;;;;8.10;4.03;;;;;;;9.90;72.65;101170.16;4999827;28;20026;-75
2021/10/17 08:03:06;;;;;;;10.90;3.67;;;;;;;9.98;72.02;101160.56;5002869;28;20323;-76
2021/10/17 08:05:31;;;;;;;11.55;3.95;;;;;;;10.01;71.99;101167.63;5000230;28;20080;-75
2021/10/17 08:07:57;;;;;;;9.00;3.83;;;;;;;10.08;70.67;101166.75;5002201;28;20083;-75
2021/10/17 08:10:23;;;;;;;9.75;4.05;;;;;;;10.09;70.61;101164.16;5018983;28;20146;-76
2021/10/17 08:12:50;;;;;;;10.38;3.90;;;;;;;10.22;70.82;101169.50;5016388;28;20108;-75
2021/10/17 08:15:16;;;;;;;11.23;4.53;;;;;;;10.30;70.16;101175.75;5017207;28;20117;-76
2021/10/17 08:17:43;;;;;;;9.52;3.92;;;;;;;10.36;70.61;101169.59;5020212;28;20038;-75
2021/10/17 08:20:20;;;;;;;9.90;3.85;;;;;;;10.41;68.67;101163.47;5000568;28;20762;-75
2021/10/17 08:22:45;;;;;;;8.88;3.72;;;;;;;10.37;68.96;101159.03;5017523;28;20060;-76
2021/10/17 08:25:11;;;;;;;11.38;4.10;;;;;;;10.49;68.63;101166.16;4999236;28;20394;-75
2021/10/17 08:27:40;;;;;;;10.52;3.88;;;;;;;10.57;68.74;101174.09;5001897;28;20412;-75
2021/10/17 08:30:06;;;;;;;8.90;3.53;;;;;;;10.63;68.55;101179.38;5018472;28;20044;-76
2021/10/17 08:32:36;;;;;;;10.35;3.88;;;;;;;10.65;67.90;101167.09;5002298;28;20401;-76
2021/10/17 08:35:05;;;;;;;9.73;3.97;;;;;;;10.81;68.22;101174.19;4984844;28;20119;-76
2021/10/17 08:37:33;;;;;;;9.70;3.90;;;;;;;10.95;67.81;101180.41;5017375;28;20108;-75
2021/10/17 08:40:11;;;;;;;10.88;3.75;;;;;;;11.12;67.61;101172.50;5001190;28;20045;-75
2021/10/17 08:42:55;;;;;;;10.43;4.00;;;;;;;11.26;67.17;101182.19;5004624;28;20044;-76
2021/10/17 08:45:26;;;;;;;8.80;3.78;;;;;;;11.41;66.10;101172.53;5002038;28;20497;-76
2021/10/17 08:47:55;;;;;;;9.60;3.92;;;;;;;11.44;66.35;101168.13;5014327;28;20129;-75
2021/10/17 08:50:21;;;;;;;7.85;3.28;;;;;;;11.44;64.83;101170.78;5000893;28;20033;-75
2021/10/17 08:52:46;;;;;;;9.38;3.70;;;;;;;11.34;64.52;101169.88;5000051;28;20382;-75
2021/10/17 08:55:12;;;;;;;11.35;3.60;;;;;;;11.26;65.52;101171.63;5000395;28;20081;-75
2021/10/17 08:57:39;;;;;;;7.57;3.60;;;;;;;11.27;65.81;101168.13;4999655;28;20060;-76
2021/10/17 09:00:25;;;;;;;11.43;3.30;;;;;;;11.30;63.85;101169.00;5000666;28;20034;-76
2021/10/17 09:02:51;;;;;;;8.75;3.17;;;;;;;11.28;63.41;101168.13;5001663;28;20026;-75
2021/10/17 09:05:17;;;;;;;7.85;3.25;;;;;;;11.34;64.51;101165.50;5020030;28;20409;-76
2021/10/17 09:07:54;;;;;;;8.55;3.33;;;;;;;11.44;63.99;101173.41;5016629;28;20496;-75
2021/10/17 09:10:25;;;;;;;8.25;3.15;;;;;;;11.45;63.77;101170.78;4997042;28;20030;-75
2021/10/17 09:12:53;;;;;;;9.80;2.92;;;;;;;11.63;63.13;101162.84;5018963;28;20053;-75
2021/10/17 09:15:22;;;;;;;12.43;3.83;;;;;;;11.69;62.70;101158.44;5003574;28;20041;-75
2021/10/17 09:18:13;;;;;;;9.00;3.15;;;;;;;11.77;62.43;101160.19;5000117;28;20157;-75
2021/10/17 09:20:47;;;;;;;9.10;3.92;;;;;;;11.82;61.52;101162.84;4999993;28;20046;-76
2021/10/17 09:23:26;;;;;;;11.30;3.63;;;;;;;11.87;60.72;101150.53;5000771;28;20046;-75
2021/10/17 09:25:56;;;;;;;12.38;3.10;;;;;;;11.93;60.61;101144.34;5001987;28;20570;-75
2021/10/17 09:28:24;;;;;;;9.02;2.83;;;;;;;11.97;61.22;101140.78;5017146;28;20026;-75
2021/10/17 09:30:56;;;;;;;8.23;2.80;;;;;;;12.03;60.66;101136.38;5000131;28;20037;-75
2021/10/17 09:33:22;;;;;;;9.27;3.13;;;;;;;12.08;59.15;101144.31;4998825;28;20026;-76
2021/10/17 09:35:47;;;;;;;11.70;3.10;;;;;;;12.13;59.43;101142.53;5019179;28;20420;-76
2021/10/17 09:38:38;;;;;;;11.00;3.03;;;;;;;12.17;59.61;101136.31;4989700;28;20605;-75
2021/10/17 09:41:15;;;;;;;11.60;2.97;;;;;;;12.24;58.42;101132.78;5015355;28;20108;-75
2021/10/17 09:43:56;;;;;;;8.98;2.85;;;;;;;12.22;57.47;101134.56;5001005;28;20064;-75
2021/10/17 09:46:33;;;;;;;11.15;4.03;;;;;;;12.33;58.30;101133.63;5015820;28;20038;-74
2021/10/17 09:48:58;;;;;;;10.23;3.15;;;;;;;12.46;57.17;101130.06;5001486;28;20512;-76
2021/10/17 09:51:25;;;;;;;6.90;2.50;;;;;;;12.52;56.31;101124.72;5003483;28;20122;-75
2021/10/17 09:53:58;;;;;;;10.63;2.83;;;;;;;12.66;56.71;101130.84;5017960;28;20042;-76
2021/10/17 09:56:27;;;;;;;9.52;2.72;;;;;;;12.81;55.91;101126.34;4999418;28;20039;-75
2021/10/17 09:58:56;;;;;;;6.25;2.65;;;;;;;12.99;55.02;101136.81;5015692;28;20064;-76
2021/10/17 10:01:25;;;;;;;7.60;2.90;;;;;;;13.04;54.13;101132.38;5002462;28;20111;-76
2021/10/17 10:03:52;;;;;;;10.95;3.17;;;;;;;13.22;54.77;101133.13;5000580;28;20038;-76
2021/10/17 10:06:18;;;;;;;9.25;2.45;;;;;;;13.32;51.69;101133.09;5003384;28;20023;-76
2021/10/17 10:08:45;;;;;;;7.72;2.33;;;;;;;13.51;51.16;101136.47;5000883;28;20037;-75
2021/10/17 10:11:11;;;;;;;9.48;2.63;;;;;;;13.61;52.78;101129.31;4999444;28;20047;-76
2021/10/17 10:13:37;;;;;;;9.13;2.90;;;;;;;13.91;50.69;101130.81;5002221;28;20477;-75
2021/10/17 10:16:04;;;;;;;7.45;2.40;;;;;;;14.03;49.40;101127.13;4999606;28;20042;-76
2021/10/17 10:18:32;;;;;;;8.77;2.25;;;;;;;14.14;49.30;101129.66;5002078;28;20058;-76
2021/10/17 10:20:57;;;;;;;6.75;2.45;;;;;;;14.30;48.85;101128.56;5005980;28;20037;-75
2021/10/17 10:23:23;;;;;;;8.32;2.58;;;;;;;14.31;47.29;101127.69;5009645;28;20042;-76
2021/10/17 10:25:50;;;;;;;10.68;2.65;;;;;;;14.43;47.74;101129.31;5009352;28;20029;-77
2021/10/17 10:28:17;;;;;;;7.97;2.45;;;;;;;14.65;46.96;101140.59;5009814;28;20042;-76
2021/10/17 10:30:43;;;;;;;10.18;2.67;;;;;;;14.64;47.54;101141.47;5011228;28;20044;-76
2021/10/17 10:33:13;;;;;;;9.43;2.53;;;;;;;14.73;47.49;101135.19;5018268;28;20120;-76
2021/10/17 10:36:13;;;;;;;8.18;2.50;;;;;;;14.68;45.29;101138.75;5015518;28;20053;-76
2021/10/17 10:38:48;;;;;;;10.65;2.78;;;;;;;14.73;46.16;101136.03;5004907;28;20050;-76
2021/10/17 10:41:15;;;;;;;11.00;2.20;;;;;;;14.52;46.52;101123.03;5024891;28;20076;-76
2021/10/17 10:43:40;;;;;;;6.78;2.53;;;;;;;14.48;46.33;101123.03;5021867;28;20031;-76
2021/10/17 10:46:06;;;;;;;8.55;3.05;;;;;;;14.46;46.66;101126.59;5008361;28;20467;-77
2021/10/17 10:48:45;;;;;;;8.90;2.85;;;;;;;14.47;46.37;101131.91;5004047;28;20495;-76
2021/10/17 10:51:10;;;;;;;9.02;2.25;;;;;;;14.58;46.08;101133.59;5002964;28;20065;-76
2021/10/17 10:53:49;;;;;;;9.75;2.60;;;;;;;14.67;47.36;101134.34;5007737;28;20037;-77
2021/10/17 10:56:46;;;;;;;17.80;4.22;;;;;;;14.58;46.38;101133.59;5002501;28;20508;-77
2021/10/17 10:59:13;;;;;;;8.80;3.08;;;;;;;14.62;47.65;101137.97;5001305;28;20585;-76
2021/10/17 11:02:02;;;;;;;6.70;2.47;;;;;;;14.76;47.14;101130.69;5004684;28;20576;-77
2021/10/17 11:04:41;;;;;;;8.65;2.22;;;;;;;15.02;47.17;101124.13;5003363;28;20049;-76
2021/10/17 11:07:16;;;;;;;8.90;2.67;;;;;;;15.05;46.69;101130.25;5023044;28;20045;-77
2021/10/17 11:09:42;;;;;;;10.00;2.67;;;;;;;15.07;47.18;101127.59;5005470;28;20030;-76
2021/10/17 11:12:08;;;;;;;7.05;2.58;;;;;;;15.05;46.36;101135.56;5024270;28;20125;-77
2021/10/17 11:14:33;;;;;;;10.07;2.53;;;;;;;14.90;46.12;101130.47;5019170;28;20042;-76
2021/10/17 11:17:06;;;;;;;9.18;2.45;;;;;;;14.81;47.54;101117.34;5008760;28;20069;-77
2021/10/17 11:19:33;;;;;;;7.43;2.78;;;;;;;14.95;47.28;101119.78;5003215;28;20038;-77
2021/10/17 11:22:02;;;;;;;8.30;2.20;;;;;;;14.84;46.27;101119.94;5003077;28;20076;-77
2021/10/17 11:24:28;;;;;;;8.65;2.60;;;;;;;14.79;46.58;101112.03;5000813;28;20038;-77
2021/10/17 11:27:08;;;;;;;5.82;1.80;;;;;;;14.86;46.02;101111.06;5002559;28;20488;-76
2021/10/17 11:29:38;;;;;;;9.95;2.50;;;;;;;15.01;46.76;101111.72;5000191;28;20124;-77